createdAt,value
2018-12-25T00:01:08.466Z,96889.00
2018-12-25T00:03:58.004Z,96886.00
2018-12-25T00:06:40.486Z,96901.00
2018-12-25T00:09:30.016Z,96903.00
2018-12-25T00:12:14.327Z,96907.00
2018-12-25T00:15:04.035Z,96907.00
2018-12-25T00:17:34.690Z,96917.00
2018-12-25T00:20:43.170Z,96916.00
2018-12-25T00:23:51.883Z,96924.00
2018-12-25T00:26:34.498Z,96925.00
2018-12-25T00:29:24.083Z,96923.00
2018-12-25T00:32:06.813Z,96940.00
2018-12-25T00:34:56.337Z,96927.00
2018-12-25T00:37:38.849Z,96924.00
2018-12-25T00:43:29.641Z,96928.00
2018-12-25T00:49:27.279Z,96953.00
2018-12-25T00:52:16.856Z,96949.00
2018-12-25T00:54:58.645Z,96950.00
2018-12-25T00:57:48.246Z,96944.00
2018-12-25T01:00:30.872Z,96943.00
2018-12-25T01:03:39.418Z,96955.00
2018-12-25T01:06:21.803Z,96947.00
2018-12-25T01:09:11.390Z,96947.00
2018-12-25T01:12:01.036Z,96949.00
2018-12-25T01:14:49.621Z,96945.00
2018-12-25T01:17:33.136Z,96951.00
2018-12-25T01:23:30.547Z,96957.00
2018-12-25T01:26:20.141Z,96941.00
2018-12-25T01:29:09.690Z,96929.00
2018-12-25T01:31:51.769Z,96938.00
2018-12-25T01:34:41.410Z,96927.00
2018-12-25T01:37:23.643Z,96923.00
2018-12-25T01:40:13.330Z,96917.00
2018-12-25T01:42:55.908Z,96914.00
2018-12-25T01:45:45.453Z,96887.00
2018-12-25T01:48:34.974Z,96896.00
2018-12-25T01:51:35.970Z,96877.00
2018-12-25T01:54:25.499Z,96884.00
2018-12-25T01:57:07.627Z,96880.00
2018-12-25T01:59:57.159Z,96858.00
2018-12-25T02:02:39.076Z,96868.00
2018-12-25T02:05:28.853Z,96860.00
2018-12-25T02:08:10.720Z,96862.00
2018-12-25T02:11:01.994Z,96865.00
2018-12-25T02:13:44.527Z,96873.00
2018-12-25T02:16:34.151Z,96871.00
2018-12-25T02:19:42.706Z,96869.00
2018-12-25T02:22:24.554Z,96864.00
2018-12-25T02:31:15.948Z,96894.00
2018-12-25T02:33:58.263Z,96912.00
2018-12-25T02:36:47.804Z,96907.00
2018-12-25T02:39:31.529Z,96916.00
2018-12-25T02:42:21.092Z,96925.00
2018-12-25T02:45:03.042Z,96923.00
2018-12-25T02:47:52.688Z,96923.00
2018-12-25T02:50:34.908Z,96919.00
2018-12-25T02:53:24.479Z,96929.00
2018-12-25T02:56:06.654Z,96913.00
2018-12-25T02:58:56.191Z,96901.00
2018-12-25T03:01:45.734Z,96894.00
2018-12-25T03:04:35.277Z,96903.00
2018-12-25T03:07:17.379Z,96904.00
2018-12-25T03:10:08.234Z,96896.00
2018-12-25T03:12:50.284Z,96897.00
2018-12-25T03:15:39.813Z,96909.00
2018-12-25T03:18:22.192Z,96893.00
2018-12-25T03:21:11.749Z,96886.00
2018-12-25T03:24:01.419Z,96896.00
2018-12-25T03:29:56.838Z,96901.00
2018-12-25T03:32:46.391Z,96910.00
2018-12-25T03:35:36.063Z,96913.00
2018-12-25T03:38:18.310Z,96901.00
2018-12-25T03:41:08.695Z,96906.00
2018-12-25T03:43:58.381Z,96920.00
2018-12-25T03:46:47.935Z,96904.00
2018-12-25T03:49:38.218Z,96905.00
2018-12-25T03:52:20.300Z,96908.00
2018-12-25T03:55:09.820Z,96914.00
2018-12-25T03:57:52.102Z,96905.00
2018-12-25T04:00:41.671Z,96910.00
2018-12-25T04:03:23.885Z,96918.00
2018-12-25T04:06:13.489Z,96903.00
2018-12-25T04:08:55.635Z,96893.00
2018-12-25T04:12:04.407Z,96904.00
2018-12-25T04:14:46.465Z,96889.00
2018-12-25T04:17:29.024Z,96898.00
2018-12-25T04:20:19.924Z,96917.00
2018-12-25T04:23:02.826Z,96896.00
2018-12-25T04:25:52.552Z,96902.00
2018-12-25T04:28:23.044Z,96922.00
2018-12-25T04:31:12.561Z,96933.00
2018-12-25T04:34:02.084Z,96915.00
2018-12-25T04:36:43.923Z,96925.00
2018-12-25T04:39:33.508Z,96927.00
2018-12-25T04:42:15.553Z,96931.00
2018-12-25T04:45:05.339Z,96922.00
2018-12-25T04:47:47.689Z,96948.00
2018-12-25T04:50:38.146Z,96921.00
2018-12-25T04:53:20.826Z,96930.00
2018-12-25T04:56:10.373Z,96926.00
2018-12-25T04:58:59.909Z,96925.00
2018-12-25T05:01:49.566Z,96923.00
2018-12-25T05:04:31.410Z,96911.00
2018-12-25T05:07:20.932Z,96912.00
2018-12-25T05:10:03.772Z,96922.00
2018-12-25T05:12:53.343Z,96928.00
2018-12-25T05:15:35.710Z,96935.00
2018-12-25T05:18:17.564Z,96929.00
2018-12-25T05:21:07.134Z,96925.00
2018-12-25T05:23:49.303Z,96932.00
2018-12-25T05:26:38.945Z,96920.00
2018-12-25T05:29:28.534Z,96914.00
2018-12-25T05:32:18.055Z,96935.00
2018-12-25T05:35:00.090Z,96931.00
2018-12-25T05:37:42.023Z,96940.00
2018-12-25T05:40:31.545Z,96938.00
2018-12-25T05:43:13.346Z,96938.00
2018-12-25T05:46:02.873Z,96933.00
2018-12-25T05:48:45.206Z,96951.00
2018-12-25T05:54:35.353Z,96946.00
2018-12-25T05:57:19.725Z,96936.00
2018-12-25T06:00:09.472Z,96961.00
2018-12-25T06:02:51.976Z,96956.00
2018-12-25T06:05:22.405Z,96957.00
2018-12-25T06:08:11.936Z,96960.00
2018-12-25T06:10:54.488Z,96948.00
2018-12-25T06:13:44.120Z,96947.00
2018-12-25T06:16:25.942Z,96944.00
2018-12-25T06:19:15.492Z,96950.00
2018-12-25T06:21:57.371Z,96942.00
2018-12-25T06:24:46.933Z,96941.00
2018-12-25T06:27:29.177Z,96942.00
2018-12-25T06:30:18.804Z,96936.00
2018-12-25T06:33:00.580Z,96929.00
2018-12-25T06:35:50.230Z,96923.00
2018-12-25T06:38:58.795Z,96921.00
2018-12-25T06:41:41.038Z,96927.00
2018-12-25T06:44:30.699Z,96927.00
2018-12-25T06:47:20.242Z,96946.00
2018-12-25T06:50:09.765Z,96937.00
2018-12-25T06:52:59.288Z,96938.00
2018-12-25T06:55:41.724Z,96944.00
2018-12-25T06:58:31.253Z,96950.00
2018-12-25T07:01:13.800Z,96938.00
2018-12-25T07:04:03.325Z,96931.00
2018-12-25T07:06:45.671Z,96926.00
2018-12-25T07:09:54.112Z,96917.00
2018-12-25T07:12:35.947Z,96943.00
2018-12-25T07:15:32.831Z,96931.00
2018-12-25T07:18:09.627Z,96941.00
2018-12-25T07:20:59.198Z,96917.00
2018-12-25T07:23:41.801Z,96908.00
2018-12-25T07:26:31.395Z,96912.00
2018-12-25T07:29:13.634Z,96896.00
2018-12-25T07:32:03.219Z,96896.00
2018-12-25T07:34:45.258Z,96915.00
2018-12-25T07:37:34.808Z,96912.00
2018-12-25T07:40:17.510Z,96921.00
2018-12-25T07:43:07.148Z,96911.00
2018-12-25T07:45:49.129Z,96908.00
2018-12-25T07:48:38.860Z,96913.00
2018-12-25T07:51:21.259Z,96902.00
2018-12-25T07:54:11.745Z,96916.00
2018-12-25T07:56:53.786Z,96907.00
2018-12-25T07:59:43.338Z,96900.00
2018-12-25T08:02:25.554Z,96903.00
2018-12-25T08:05:15.087Z,96914.00
2018-12-25T08:07:57.886Z,96912.00
2018-12-25T08:10:47.417Z,96916.00
2018-12-25T08:13:30.711Z,96916.00
2018-12-25T08:16:20.329Z,96918.00
2018-12-25T08:19:02.662Z,96917.00
2018-12-25T08:21:52.197Z,96931.00
2018-12-25T08:24:34.318Z,96938.00
2018-12-25T08:27:23.856Z,96929.00
2018-12-25T08:30:06.098Z,96928.00
2018-12-25T08:32:55.618Z,96929.00
2018-12-25T08:35:37.848Z,96934.00
2018-12-25T08:38:27.399Z,96941.00
2018-12-25T08:41:09.287Z,96947.00
2018-12-25T08:43:58.897Z,96958.00
2018-12-25T08:47:07.374Z,96963.00
2018-12-25T08:49:50.324Z,96967.00
2018-12-25T08:52:39.855Z,96969.00
2018-12-25T08:55:22.121Z,96970.00
2018-12-25T08:58:12.208Z,96962.00
2018-12-25T09:01:01.873Z,96968.00
2018-12-25T09:03:43.877Z,96972.00
2018-12-25T09:06:52.345Z,96961.00
2018-12-25T09:09:34.931Z,96973.00
2018-12-25T09:12:24.461Z,96975.00
2018-12-25T09:15:07.326Z,96967.00
2018-12-25T09:17:49.449Z,96989.00
2018-12-25T09:20:39.028Z,96977.00
2018-12-25T09:23:21.104Z,96970.00
2018-12-25T09:26:10.704Z,96974.00
2018-12-25T09:28:53.038Z,96979.00
2018-12-25T09:31:42.596Z,96964.00
2018-12-25T09:34:24.814Z,96970.00
2018-12-25T09:37:14.389Z,96953.00
2018-12-25T09:39:57.168Z,96972.00
2018-12-25T09:42:46.725Z,96973.00
2018-12-25T09:45:29.042Z,96973.00
2018-12-25T09:48:37.494Z,96962.00
2018-12-25T09:51:20.203Z,96962.00
2018-12-25T09:54:09.733Z,96965.00
2018-12-25T09:56:59.257Z,96979.00
2018-12-25T10:02:41.513Z,96958.00
2018-12-25T10:05:31.147Z,96979.00
2018-12-25T10:08:20.686Z,96970.00
2018-12-25T10:11:02.816Z,96971.00
2018-12-25T10:13:52.637Z,96973.00
2018-12-25T10:16:36.412Z,96982.00
2018-12-25T10:19:18.803Z,96972.00
2018-12-25T10:22:08.320Z,96977.00
2018-12-25T10:24:51.402Z,96998.00
2018-12-25T10:27:41.034Z,96986.00
2018-12-25T10:30:22.961Z,96977.00
2018-12-25T10:33:13.295Z,96979.00
2018-12-25T10:35:55.059Z,96955.00
2018-12-25T10:38:37.675Z,96953.00
2018-12-25T10:41:27.210Z,96941.00
2018-12-25T10:44:16.781Z,96942.00
2018-12-25T10:46:59.514Z,96945.00
2018-12-25T10:49:49.058Z,96947.00
2018-12-25T10:52:31.839Z,96936.00
2018-12-25T10:55:40.396Z,96929.00
2018-12-25T10:58:23.057Z,96914.00
2018-12-25T11:01:18.902Z,96920.00
2018-12-25T11:04:01.466Z,96899.00
2018-12-25T11:06:51.056Z,96887.00
2018-12-25T11:09:40.659Z,96883.00
2018-12-25T11:12:30.298Z,96890.00
2018-12-25T11:15:19.875Z,96886.00
2018-12-25T11:18:01.822Z,96891.00
2018-12-25T11:20:51.359Z,96899.00
2018-12-25T11:23:33.503Z,96891.00
2018-12-25T11:26:23.061Z,96886.00
2018-12-25T11:29:05.773Z,96888.00
2018-12-25T11:32:14.310Z,96884.00
2018-12-25T11:34:56.804Z,96886.00
2018-12-25T11:37:46.446Z,96885.00
2018-12-25T11:40:28.831Z,96882.00
2018-12-25T11:43:18.451Z,96871.00
2018-12-25T11:46:00.580Z,96884.00
2018-12-25T11:48:50.098Z,96877.00
2018-12-25T11:51:31.922Z,96897.00
2018-12-25T11:54:22.012Z,96911.00
2018-12-25T11:57:03.811Z,96921.00
2018-12-25T11:59:53.331Z,96900.00
2018-12-25T12:02:35.997Z,96913.00
2018-12-25T12:05:37.016Z,96891.00
2018-12-25T12:08:26.540Z,96915.00
2018-12-25T12:11:09.004Z,96939.00
2018-12-25T12:13:58.600Z,96936.00
2018-12-25T12:16:40.525Z,96928.00
2018-12-25T12:19:30.066Z,96939.00
2018-12-25T12:22:12.346Z,96921.00
2018-12-25T12:25:01.864Z,96934.00
2018-12-25T12:27:44.537Z,96930.00
2018-12-25T12:30:34.056Z,96947.00
2018-12-25T12:33:15.886Z,96940.00
2018-12-25T12:36:24.577Z,96964.00
2018-12-25T12:39:07.880Z,96966.00
2018-12-25T12:42:16.359Z,96972.00
2018-12-25T12:44:58.110Z,96981.00
2018-12-25T12:47:47.647Z,96990.00
2018-12-25T12:50:49.711Z,97003.00
2018-12-25T12:53:39.278Z,96989.00
2018-12-25T12:56:21.941Z,96993.00
2018-12-25T12:59:11.582Z,96992.00
2018-12-25T13:02:01.144Z,97000.00
2018-12-25T13:04:44.654Z,96998.00
2018-12-25T13:07:27.105Z,96989.00
2018-12-25T13:10:16.688Z,96988.00
2018-12-25T13:12:58.805Z,96996.00
2018-12-25T13:15:48.330Z,96990.00
2018-12-25T13:18:31.115Z,97007.00
2018-12-25T13:21:20.834Z,97001.00
2018-12-25T13:24:03.624Z,96997.00
2018-12-25T13:26:53.156Z,97022.00
2018-12-25T13:32:44.943Z,97015.00
2018-12-25T13:35:27.188Z,97037.00
2018-12-25T13:38:16.715Z,97017.00
2018-12-25T13:41:06.255Z,97021.00
2018-12-25T13:44:14.719Z,97012.00
2018-12-25T13:47:04.254Z,97007.00
2018-12-25T13:49:46.835Z,97017.00
2018-12-25T13:52:36.366Z,97008.00
2018-12-25T13:55:18.844Z,96998.00
2018-12-25T13:58:08.449Z,96987.00
2018-12-25T14:00:50.319Z,96989.00
2018-12-25T14:03:39.940Z,96972.00
2018-12-25T14:06:22.493Z,96988.00
2018-12-25T14:09:12.061Z,96986.00
2018-12-25T14:11:53.988Z,97001.00
2018-12-25T14:14:43.525Z,97010.00
2018-12-25T14:17:25.406Z,97013.00
2018-12-25T14:20:15.460Z,97007.00
2018-12-25T14:22:58.009Z,96993.00
2018-12-25T14:28:56.646Z,96998.00
2018-12-25T14:31:46.134Z,96987.00
2018-12-25T14:34:35.667Z,97003.00
2018-12-25T14:37:25.187Z,96988.00
2018-12-25T14:40:08.285Z,97008.00
2018-12-25T14:46:04.705Z,96983.00
2018-12-25T14:48:54.369Z,97004.00
2018-12-25T14:51:44.030Z,97000.00
2018-12-25T14:54:26.449Z,97009.00
2018-12-25T14:57:16.098Z,97013.00
2018-12-25T15:00:00.600Z,97006.00
2018-12-25T15:02:42.508Z,97030.00
2018-12-25T15:05:32.093Z,97018.00
2018-12-25T15:08:14.355Z,97020.00
2018-12-25T15:11:03.980Z,97018.00
2018-12-25T15:13:46.573Z,97027.00
2018-12-25T15:16:36.130Z,97037.00
2018-12-25T15:19:17.885Z,97034.00
2018-12-25T15:22:07.439Z,97032.00
2018-12-25T15:24:49.446Z,97044.00
2018-12-25T15:27:57.939Z,97042.00
2018-12-25T15:30:40.375Z,97052.00
2018-12-25T15:33:29.893Z,97056.00
2018-12-25T15:36:11.629Z,97053.00
2018-12-25T15:42:09.762Z,97060.00
2018-12-25T15:44:52.274Z,97065.00
2018-12-25T15:47:41.800Z,97065.00
2018-12-25T15:50:24.006Z,97059.00
2018-12-25T15:53:13.536Z,97068.00
2018-12-25T15:55:55.527Z,97061.00
2018-12-25T15:58:56.887Z,97057.00
2018-12-25T16:01:46.429Z,97070.00
2018-12-25T16:04:28.296Z,97053.00
2018-12-25T16:07:17.913Z,97060.00
2018-12-25T16:10:00.716Z,97064.00
2018-12-25T16:12:50.175Z,97062.00
2018-12-25T16:15:32.361Z,97052.00
2018-12-25T16:18:15.076Z,97061.00
2018-12-25T16:21:04.677Z,97065.00
2018-12-25T16:23:48.495Z,97067.00
2018-12-25T16:26:38.044Z,97064.00
2018-12-25T16:29:20.545Z,97059.00
2018-12-25T16:32:10.103Z,97051.00
2018-12-25T16:34:51.900Z,97046.00
2018-12-25T16:37:41.475Z,97047.00
2018-12-25T16:40:23.515Z,97053.00
2018-12-25T16:43:13.111Z,97069.00
2018-12-25T16:46:21.670Z,97054.00
2018-12-25T16:49:03.636Z,97064.00
2018-12-25T16:51:53.186Z,97065.00
2018-12-25T16:55:01.636Z,97059.00
2018-12-25T16:57:43.581Z,97059.00
2018-12-25T17:00:33.143Z,97066.00
2018-12-25T17:03:15.786Z,97062.00
2018-12-25T17:06:05.542Z,97062.00
2018-12-25T17:08:47.749Z,97063.00
2018-12-25T17:11:38.105Z,97060.00
2018-12-25T17:14:20.138Z,97057.00
2018-12-25T17:17:09.799Z,97045.00
2018-12-25T17:20:18.269Z,97042.00
2018-12-25T17:23:00.618Z,97046.00
2018-12-25T17:25:50.144Z,97047.00
2018-12-25T17:28:32.895Z,97049.00
2018-12-25T17:31:22.457Z,97030.00
2018-12-25T17:34:05.182Z,97032.00
2018-12-25T17:40:00.812Z,97016.00
2018-12-25T17:42:50.338Z,97018.00
2018-12-25T17:45:32.877Z,97029.00
2018-12-25T17:48:22.444Z,97024.00
2018-12-25T17:51:04.890Z,97034.00
2018-12-25T17:53:54.433Z,97034.00
2018-12-25T17:56:38.005Z,97026.00
2018-12-25T17:59:27.705Z,97026.00
2018-12-25T18:02:17.508Z,97021.00
2018-12-25T18:05:11.796Z,97021.00
2018-12-25T18:07:58.444Z,97028.00
2018-12-25T18:10:40.171Z,97018.00
2018-12-25T18:13:29.728Z,97015.00
2018-12-25T18:16:11.521Z,97008.00
2018-12-25T18:18:53.571Z,97012.00
2018-12-25T18:24:44.321Z,97012.00
2018-12-25T18:27:33.858Z,97017.00
2018-12-25T18:30:23.404Z,97014.00
2018-12-25T18:33:05.471Z,97017.00
2018-12-25T18:35:55.025Z,96998.00
2018-12-25T18:38:36.863Z,97001.00
2018-12-25T18:41:26.406Z,96987.00
2018-12-25T18:44:08.271Z,96985.00
2018-12-25T18:46:57.840Z,96985.00
2018-12-25T18:49:41.470Z,96982.00
2018-12-25T18:52:31.047Z,96988.00
2018-12-25T18:55:12.942Z,96990.00
2018-12-25T19:01:03.088Z,96990.00
2018-12-25T19:03:45.708Z,96971.00
2018-12-25T19:06:35.269Z,96974.00
2018-12-25T19:09:17.732Z,96960.00
2018-12-25T19:12:07.287Z,96985.00
2018-12-25T19:14:58.265Z,96978.00
2018-12-25T19:17:40.695Z,96973.00
2018-12-25T19:20:49.189Z,96955.00
2018-12-25T19:23:32.139Z,96986.00
2018-12-25T19:26:21.790Z,96976.00
2018-12-25T19:29:03.892Z,96967.00
2018-12-25T19:31:53.536Z,96965.00
2018-12-25T19:34:36.052Z,96964.00
2018-12-25T19:37:25.758Z,96963.00
2018-12-25T19:40:08.256Z,96948.00
2018-12-25T19:42:57.913Z,96949.00
2018-12-25T19:45:48.567Z,96942.00
2018-12-25T19:48:31.315Z,96936.00
2018-12-25T19:51:20.960Z,96946.00
2018-12-25T19:54:03.634Z,96942.00
2018-12-25T19:57:12.174Z,96950.00
2018-12-25T19:59:54.051Z,96939.00
2018-12-25T20:03:23.895Z,96934.00
2018-12-25T20:10:08.395Z,96925.00
2018-12-25T20:13:09.951Z,96935.00
2018-12-25T20:16:37.690Z,96922.00
2018-12-25T20:19:22.998Z,96905.00
2018-12-25T20:22:50.707Z,96929.00
2018-12-25T20:25:51.842Z,96924.00
2018-12-25T20:29:23.293Z,96938.00
2018-12-25T20:32:09.176Z,96951.00
2018-12-25T20:35:36.850Z,96940.00
2018-12-25T20:38:38.439Z,96958.00
2018-12-25T20:42:06.156Z,96954.00
2018-12-25T20:45:07.346Z,96948.00
2018-12-25T20:48:35.089Z,96946.00
2018-12-25T20:51:36.961Z,96956.00
2018-12-25T20:55:04.658Z,96974.00
2018-12-25T20:58:13.381Z,96981.00
2018-12-25T21:01:41.089Z,96966.00
2018-12-25T21:08:29.527Z,96958.00
2018-12-25T21:11:30.475Z,96966.00
2018-12-25T21:18:19.072Z,96942.00
2018-12-25T21:21:46.802Z,96953.00
2018-12-25T21:24:48.438Z,96968.00
2018-12-25T21:30:34.435Z,96939.00
2018-12-25T21:33:17.049Z,96926.00
2018-12-25T21:36:06.652Z,96938.00
2018-12-25T21:38:49.097Z,96936.00
2018-12-25T21:44:46.425Z,96928.00
2018-12-25T21:51:16.220Z,96912.00
2018-12-25T21:54:06.019Z,96925.00
2018-12-25T21:56:48.577Z,96928.00
2018-12-25T22:09:02.273Z,96914.00
2018-12-25T22:11:45.401Z,96910.00
2018-12-25T22:14:34.915Z,96910.00
2018-12-25T22:17:16.951Z,96905.00
2018-12-25T22:20:30.461Z,96903.00
2018-12-25T22:23:12.511Z,96892.00
2018-12-25T22:26:02.203Z,96898.00
2018-12-25T22:28:46.518Z,96907.00
2018-12-25T22:31:36.516Z,96903.00
2018-12-25T22:34:18.698Z,96897.00
2018-12-25T22:37:09.133Z,96887.00
2018-12-25T22:39:51.658Z,96892.00
2018-12-25T22:48:43.587Z,96895.00
2018-12-25T22:51:25.836Z,96886.00
2018-12-25T22:54:15.433Z,96891.00
2018-12-25T22:56:58.006Z,96909.00
2018-12-25T23:02:53.913Z,96904.00
2018-12-25T23:05:43.487Z,96889.00
2018-12-25T23:08:33.045Z,96901.00
2018-12-25T23:11:34.296Z,96900.00
2018-12-25T23:14:23.937Z,96905.00
2018-12-25T23:17:06.448Z,96899.00
2018-12-25T23:19:56.014Z,96899.00
2018-12-25T23:23:04.498Z,96889.00
2018-12-25T23:25:47.889Z,96901.00
2018-12-25T23:28:31.322Z,96891.00
2018-12-25T23:31:21.063Z,96896.00
2018-12-25T23:34:03.691Z,96894.00
2018-12-25T23:36:53.218Z,96887.00
2018-12-25T23:39:35.509Z,96889.00
2018-12-25T23:42:25.174Z,96897.00
2018-12-25T23:45:07.752Z,96875.00
2018-12-25T23:48:16.310Z,96874.00
2018-12-25T23:50:58.850Z,96889.00
2018-12-25T23:53:48.409Z,96885.00
2018-12-25T23:56:31.477Z,96883.00
2018-12-25T23:59:21.015Z,96883.00
